sensor_id;sensor_type;location;lat;lon;timestamp;temperature;humidity
42019;DHT22;27703;51.980;5.848;2022-10-22T00:00:56;13.90;99.90
42019;DHT22;27703;51.980;5.848;2022-10-22T00:03:21;13.80;99.90
42019;DHT22;27703;51.980;5.848;2022-10-22T00:05:47;13.80;99.90
42019;DHT22;27703;51.980;5.848;2022-10-22T00:08:13;13.80;99.90
42019;DHT22;27703;51.980;5.848;2022-10-22T00:10:39;13.80;99.90
42019;DHT22;27703;51.980;5.848;2022-10-22T00:13:05;13.80;99.90
42019;DHT22;27703;51.980;5.848;2022-10-22T00:15:31;13.80;99.90
42019;DHT22;27703;51.980;5.848;2022-10-22T00:17:56;13.90;99.90
42019;DHT22;27703;51.980;5.848;2022-10-22T00:20:22;13.90;99.90
42019;DHT22;27703;51.980;5.848;2022-10-22T00:22:48;14.00;99.90
42019;DHT22;27703;51.980;5.848;2022-10-22T00:25:14;14.00;99.90
42019;DHT22;27703;51.980;5.848;2022-10-22T00:27:40;14.00;99.90
42019;DHT22;27703;51.980;5.848;2022-10-22T00:30:06;13.90;99.90
42019;DHT22;27703;51.980;5.848;2022-10-22T00:32:31;13.90;99.90
42019;DHT22;27703;51.980;5.848;2022-10-22T00:34:57;13.90;99.90
42019;DHT22;27703;51.980;5.848;2022-10-22T00:37:22;14.00;99.90
42019;DHT22;27703;51.980;5.848;2022-10-22T00:39:48;14.10;99.90
42019;DHT22;27703;51.980;5.848;2022-10-22T00:42:20;14.10;99.90
42019;DHT22;27703;51.980;5.848;2022-10-22T00:47:30;14.00;99.90
42019;DHT22;27703;51.980;5.848;2022-10-22T00:49:56;14.00;99.90
42019;DHT22;27703;51.980;5.848;2022-10-22T00:52:23;14.00;99.90
42019;DHT22;27703;51.980;5.848;2022-10-22T00:54:49;14.00;99.90
42019;DHT22;27703;51.980;5.848;2022-10-22T00:57:17;14.00;99.90
42019;DHT22;27703;51.980;5.848;2022-10-22T00:59:43;14.00;99.90
42019;DHT22;27703;51.980;5.848;2022-10-22T01:02:09;13.90;99.90
42019;DHT22;27703;51.980;5.848;2022-10-22T01:04:34;13.90;99.90
42019;DHT22;27703;51.980;5.848;2022-10-22T01:07:00;13.90;99.90
42019;DHT22;27703;51.980;5.848;2022-10-22T01:17:58;13.80;99.90
42019;DHT22;27703;51.980;5.848;2022-10-22T01:23:28;13.70;99.90
42019;DHT22;27703;51.980;5.848;2022-10-22T01:31:13;13.70;99.90
42019;DHT22;27703;51.980;5.848;2022-10-22T01:33:43;13.70;99.90
42019;DHT22;27703;51.980;5.848;2022-10-22T01:36:11;13.70;99.90
42019;DHT22;27703;51.980;5.848;2022-10-22T01:38:38;13.80;99.90
42019;DHT22;27703;51.980;5.848;2022-10-22T01:41:04;13.70;99.90
42019;DHT22;27703;51.980;5.848;2022-10-22T01:43:29;13.70;99.90
42019;DHT22;27703;51.980;5.848;2022-10-22T01:45:58;13.70;99.90
42019;DHT22;27703;51.980;5.848;2022-10-22T01:57:47;13.60;99.90
42019;DHT22;27703;51.980;5.848;2022-10-22T02:00:16;13.60;99.90
42019;DHT22;27703;51.980;5.848;2022-10-22T02:02:48;13.50;99.90
42019;DHT22;27703;51.980;5.848;2022-10-22T02:05:24;13.50;99.90
42019;DHT22;27703;51.980;5.848;2022-10-22T02:08:08;13.50;99.90
42019;DHT22;27703;51.980;5.848;2022-10-22T02:10:36;13.60;99.90
42019;DHT22;27703;51.980;5.848;2022-10-22T02:13:04;13.50;99.90
42019;DHT22;27703;51.980;5.848;2022-10-22T02:15:34;13.50;99.90
42019;DHT22;27703;51.980;5.848;2022-10-22T02:18:01;13.60;99.90
42019;DHT22;27703;51.980;5.848;2022-10-22T02:20:31;13.60;99.90
42019;DHT22;27703;51.980;5.848;2022-10-22T02:22:57;13.60;99.90
42019;DHT22;27703;51.980;5.848;2022-10-22T02:25:27;13.60;99.90
42019;DHT22;27703;51.980;5.848;2022-10-22T02:28:03;13.60;99.90
42019;DHT22;27703;51.980;5.848;2022-10-22T02:30:32;13.60;99.90
42019;DHT22;27703;51.980;5.848;2022-10-22T02:33:10;13.60;99.90
42019;DHT22;27703;51.980;5.848;2022-10-22T02:35:38;13.60;99.90
42019;DHT22;27703;51.980;5.848;2022-10-22T02:38:06;13.60;99.90
42019;DHT22;27703;51.980;5.848;2022-10-22T02:40:32;13.60;99.90
42019;DHT22;27703;51.980;5.848;2022-10-22T02:42:57;13.60;99.90
42019;DHT22;27703;51.980;5.848;2022-10-22T02:45:23;13.60;99.90
42019;DHT22;27703;51.980;5.848;2022-10-22T02:47:49;13.60;99.90
42019;DHT22;27703;51.980;5.848;2022-10-22T02:50:14;13.60;99.90
42019;DHT22;27703;51.980;5.848;2022-10-22T02:52:40;13.60;99.90
42019;DHT22;27703;51.980;5.848;2022-10-22T02:55:06;13.60;99.90
42019;DHT22;27703;51.980;5.848;2022-10-22T02:57:32;13.60;99.90
42019;DHT22;27703;51.980;5.848;2022-10-22T02:59:57;13.60;99.90
42019;DHT22;27703;51.980;5.848;2022-10-22T03:02:23;13.60;99.90
42019;DHT22;27703;51.980;5.848;2022-10-22T03:04:48;13.60;99.90
42019;DHT22;27703;51.980;5.848;2022-10-22T03:07:14;13.60;99.90
42019;DHT22;27703;51.980;5.848;2022-10-22T03:09:39;13.60;99.90
42019;DHT22;27703;51.980;5.848;2022-10-22T03:12:05;13.60;99.90
42019;DHT22;27703;51.980;5.848;2022-10-22T03:14:33;13.60;99.90
42019;DHT22;27703;51.980;5.848;2022-10-22T03:16:58;13.50;99.90
42019;DHT22;27703;51.980;5.848;2022-10-22T03:19:24;13.50;99.90
42019;DHT22;27703;51.980;5.848;2022-10-22T03:22:01;13.50;99.90
42019;DHT22;27703;51.980;5.848;2022-10-22T03:24:41;13.50;99.90
42019;DHT22;27703;51.980;5.848;2022-10-22T03:27:09;13.50;99.90
42019;DHT22;27703;51.980;5.848;2022-10-22T03:29:36;13.50;99.90
42019;DHT22;27703;51.980;5.848;2022-10-22T03:32:03;13.50;99.90
42019;DHT22;27703;51.980;5.848;2022-10-22T03:34:28;13.50;99.90
42019;DHT22;27703;51.980;5.848;2022-10-22T03:36:56;13.50;99.90
42019;DHT22;27703;51.980;5.848;2022-10-22T03:39:23;13.50;99.90
42019;DHT22;27703;51.980;5.848;2022-10-22T03:41:50;13.60;99.90
42019;DHT22;27703;51.980;5.848;2022-10-22T03:44:17;13.50;99.90
42019;DHT22;27703;51.980;5.848;2022-10-22T03:46:43;13.50;99.90
42019;DHT22;27703;51.980;5.848;2022-10-22T03:49:08;13.50;99.90
42019;DHT22;27703;51.980;5.848;2022-10-22T03:51:34;13.50;99.90
42019;DHT22;27703;51.980;5.848;2022-10-22T03:54:00;13.50;99.90
42019;DHT22;27703;51.980;5.848;2022-10-22T03:56:26;13.50;99.90
42019;DHT22;27703;51.980;5.848;2022-10-22T03:58:58;13.50;99.90
42019;DHT22;27703;51.980;5.848;2022-10-22T04:01:25;13.50;99.90
42019;DHT22;27703;51.980;5.848;2022-10-22T04:03:51;13.50;99.90
42019;DHT22;27703;51.980;5.848;2022-10-22T04:06:16;13.50;99.90
42019;DHT22;27703;51.980;5.848;2022-10-22T04:08:43;13.50;99.90
42019;DHT22;27703;51.980;5.848;2022-10-22T04:11:10;13.50;99.90
42019;DHT22;27703;51.980;5.848;2022-10-22T04:13:36;13.50;99.90
42019;DHT22;27703;51.980;5.848;2022-10-22T04:16:09;13.50;99.90
42019;DHT22;27703;51.980;5.848;2022-10-22T04:18:35;13.50;99.90
42019;DHT22;27703;51.980;5.848;2022-10-22T04:21:00;13.40;99.90
42019;DHT22;27703;51.980;5.848;2022-10-22T04:23:26;13.40;99.90
42019;DHT22;27703;51.980;5.848;2022-10-22T04:26:04;13.40;99.90
42019;DHT22;27703;51.980;5.848;2022-10-22T04:28:30;13.40;99.90
42019;DHT22;27703;51.980;5.848;2022-10-22T04:30:55;13.40;99.90
42019;DHT22;27703;51.980;5.848;2022-10-22T04:33:21;13.40;99.90
42019;DHT22;27703;51.980;5.848;2022-10-22T04:35:47;13.40;99.90
42019;DHT22;27703;51.980;5.848;2022-10-22T04:38:12;13.40;99.90
42019;DHT22;27703;51.980;5.848;2022-10-22T04:40:38;13.40;99.90
42019;DHT22;27703;51.980;5.848;2022-10-22T04:43:03;13.40;99.90
42019;DHT22;27703;51.980;5.848;2022-10-22T04:45:29;13.40;99.90
42019;DHT22;27703;51.980;5.848;2022-10-22T04:47:55;13.40;99.90
42019;DHT22;27703;51.980;5.848;2022-10-22T04:50:20;13.40;99.90
42019;DHT22;27703;51.980;5.848;2022-10-22T04:52:46;13.40;99.90
42019;DHT22;27703;51.980;5.848;2022-10-22T04:55:11;13.40;99.90
42019;DHT22;27703;51.980;5.848;2022-10-22T04:57:37;13.40;99.90
42019;DHT22;27703;51.980;5.848;2022-10-22T05:00:03;13.40;99.90
42019;DHT22;27703;51.980;5.848;2022-10-22T05:02:29;13.40;99.90
42019;DHT22;27703;51.980;5.848;2022-10-22T05:04:54;13.50;99.90
42019;DHT22;27703;51.980;5.848;2022-10-22T05:07:20;13.50;99.90
42019;DHT22;27703;51.980;5.848;2022-10-22T05:09:45;13.50;99.90
42019;DHT22;27703;51.980;5.848;2022-10-22T05:12:11;13.50;99.90
42019;DHT22;27703;51.980;5.848;2022-10-22T05:14:37;13.50;99.90
42019;DHT22;27703;51.980;5.848;2022-10-22T05:17:02;13.50;99.90
42019;DHT22;27703;51.980;5.848;2022-10-22T05:19:29;13.50;99.90
42019;DHT22;27703;51.980;5.848;2022-10-22T05:22:02;13.50;99.90
42019;DHT22;27703;51.980;5.848;2022-10-22T05:24:29;13.50;99.90
42019;DHT22;27703;51.980;5.848;2022-10-22T05:26:56;13.40;99.90
42019;DHT22;27703;51.980;5.848;2022-10-22T05:29:23;13.50;99.90
42019;DHT22;27703;51.980;5.848;2022-10-22T05:31:49;13.40;99.90
42019;DHT22;27703;51.980;5.848;2022-10-22T05:34:15;13.40;99.90
42019;DHT22;27703;51.980;5.848;2022-10-22T05:36:41;13.40;99.90
42019;DHT22;27703;51.980;5.848;2022-10-22T05:39:07;13.40;99.90
42019;DHT22;27703;51.980;5.848;2022-10-22T05:41:34;13.40;99.90
42019;DHT22;27703;51.980;5.848;2022-10-22T05:44:02;13.40;99.90
42019;DHT22;27703;51.980;5.848;2022-10-22T05:46:31;13.40;99.90
42019;DHT22;27703;51.980;5.848;2022-10-22T05:49:03;13.40;99.90
42019;DHT22;27703;51.980;5.848;2022-10-22T05:51:30;13.30;99.90
42019;DHT22;27703;51.980;5.848;2022-10-22T05:53:58;13.30;99.90
42019;DHT22;27703;51.980;5.848;2022-10-22T05:56:24;13.30;99.90
42019;DHT22;27703;51.980;5.848;2022-10-22T05:58:50;13.30;99.90
42019;DHT22;27703;51.980;5.848;2022-10-22T06:01:24;13.30;99.90
42019;DHT22;27703;51.980;5.848;2022-10-22T06:03:56;13.30;99.90
42019;DHT22;27703;51.980;5.848;2022-10-22T06:09:00;13.30;99.90
42019;DHT22;27703;51.980;5.848;2022-10-22T06:11:26;13.30;99.90
42019;DHT22;27703;51.980;5.848;2022-10-22T06:13:52;13.30;99.90
42019;DHT22;27703;51.980;5.848;2022-10-22T06:16:17;13.20;99.90
42019;DHT22;27703;51.980;5.848;2022-10-22T06:18:43;13.30;99.90
42019;DHT22;27703;51.980;5.848;2022-10-22T06:21:13;13.30;99.90
42019;DHT22;27703;51.980;5.848;2022-10-22T06:23:40;13.30;99.90
42019;DHT22;27703;51.980;5.848;2022-10-22T06:26:07;13.30;99.90
42019;DHT22;27703;51.980;5.848;2022-10-22T06:28:33;13.40;99.90
42019;DHT22;27703;51.980;5.848;2022-10-22T06:31:00;13.50;99.90
42019;DHT22;27703;51.980;5.848;2022-10-22T06:33:27;13.40;99.90
42019;DHT22;27703;51.980;5.848;2022-10-22T06:35:53;13.40;99.90
42019;DHT22;27703;51.980;5.848;2022-10-22T06:38:19;13.50;99.90
42019;DHT22;27703;51.980;5.848;2022-10-22T06:40:45;13.50;99.90
42019;DHT22;27703;51.980;5.848;2022-10-22T06:43:11;13.50;99.90
42019;DHT22;27703;51.980;5.848;2022-10-22T06:45:37;13.50;99.90
42019;DHT22;27703;51.980;5.848;2022-10-22T06:48:03;13.50;99.90
42019;DHT22;27703;51.980;5.848;2022-10-22T06:50:29;13.50;99.90
42019;DHT22;27703;51.980;5.848;2022-10-22T06:52:56;13.50;99.90
42019;DHT22;27703;51.980;5.848;2022-10-22T06:55:21;13.50;99.90
42019;DHT22;27703;51.980;5.848;2022-10-22T06:57:47;13.50;99.90
42019;DHT22;27703;51.980;5.848;2022-10-22T07:00:13;13.50;99.90
42019;DHT22;27703;51.980;5.848;2022-10-22T07:02:38;13.50;99.90
42019;DHT22;27703;51.980;5.848;2022-10-22T07:05:04;13.60;99.90
42019;DHT22;27703;51.980;5.848;2022-10-22T07:07:30;13.60;99.90
42019;DHT22;27703;51.980;5.848;2022-10-22T07:09:55;13.60;99.90
42019;DHT22;27703;51.980;5.848;2022-10-22T07:12:21;13.70;99.90
42019;DHT22;27703;51.980;5.848;2022-10-22T07:14:47;13.80;99.90
42019;DHT22;27703;51.980;5.848;2022-10-22T07:17:13;13.80;99.90
42019;DHT22;27703;51.980;5.848;2022-10-22T07:19:39;13.80;99.90
42019;DHT22;27703;51.980;5.848;2022-10-22T07:22:04;13.90;99.90
42019;DHT22;27703;51.980;5.848;2022-10-22T07:24:30;13.90;99.90
42019;DHT22;27703;51.980;5.848;2022-10-22T07:26:55;13.90;99.90
42019;DHT22;27703;51.980;5.848;2022-10-22T07:29:21;14.00;99.90
42019;DHT22;27703;51.980;5.848;2022-10-22T07:31:46;14.10;99.90
42019;DHT22;27703;51.980;5.848;2022-10-22T07:34:12;14.10;99.90
42019;DHT22;27703;51.980;5.848;2022-10-22T07:36:37;14.10;99.90
42019;DHT22;27703;51.980;5.848;2022-10-22T07:39:03;14.10;99.90
42019;DHT22;27703;51.980;5.848;2022-10-22T07:41:29;14.10;99.90
42019;DHT22;27703;51.980;5.848;2022-10-22T07:43:56;14.20;99.90
42019;DHT22;27703;51.980;5.848;2022-10-22T07:46:22;14.30;99.90
42019;DHT22;27703;51.980;5.848;2022-10-22T07:48:48;14.30;99.90
42019;DHT22;27703;51.980;5.848;2022-10-22T07:51:14;14.40;99.90
42019;DHT22;27703;51.980;5.848;2022-10-22T07:53:40;14.40;99.90
42019;DHT22;27703;51.980;5.848;2022-10-22T07:56:06;14.40;99.90
42019;DHT22;27703;51.980;5.848;2022-10-22T07:58:32;14.50;99.90
42019;DHT22;27703;51.980;5.848;2022-10-22T08:00:59;14.60;99.90
42019;DHT22;27703;51.980;5.848;2022-10-22T08:03:25;14.70;99.90
42019;DHT22;27703;51.980;5.848;2022-10-22T08:05:51;14.70;99.90
42019;DHT22;27703;51.980;5.848;2022-10-22T08:08:18;14.80;99.90
42019;DHT22;27703;51.980;5.848;2022-10-22T08:10:45;14.80;99.90
42019;DHT22;27703;51.980;5.848;2022-10-22T08:13:10;14.90;99.90
42019;DHT22;27703;51.980;5.848;2022-10-22T08:15:36;15.00;99.90
42019;DHT22;27703;51.980;5.848;2022-10-22T08:18:02;15.10;99.90
42019;DHT22;27703;51.980;5.848;2022-10-22T08:20:27;15.10;99.90
42019;DHT22;27703;51.980;5.848;2022-10-22T08:22:53;15.10;99.90
42019;DHT22;27703;51.980;5.848;2022-10-22T08:25:18;15.10;99.90
42019;DHT22;27703;51.980;5.848;2022-10-22T08:27:44;15.10;99.90
42019;DHT22;27703;51.980;5.848;2022-10-22T08:30:11;15.10;99.90
42019;DHT22;27703;51.980;5.848;2022-10-22T08:32:36;15.10;99.90
42019;DHT22;27703;51.980;5.848;2022-10-22T08:35:02;15.20;99.90
42019;DHT22;27703;51.980;5.848;2022-10-22T08:37:28;15.20;99.90
42019;DHT22;27703;51.980;5.848;2022-10-22T08:39:54;15.20;99.90
42019;DHT22;27703;51.980;5.848;2022-10-22T08:43:00;15.20;99.90
42019;DHT22;27703;51.980;5.848;2022-10-22T08:50:45;15.40;99.90
42019;DHT22;27703;51.980;5.848;2022-10-22T08:53:20;15.40;99.90
42019;DHT22;27703;51.980;5.848;2022-10-22T08:55:48;15.40;99.90
42019;DHT22;27703;51.980;5.848;2022-10-22T09:03:59;15.50;99.90
42019;DHT22;27703;51.980;5.848;2022-10-22T09:06:31;15.60;99.90
42019;DHT22;27703;51.980;5.848;2022-10-22T09:08:58;15.60;99.90
42019;DHT22;27703;51.980;5.848;2022-10-22T09:11:34;15.60;99.90
42019;DHT22;27703;51.980;5.848;2022-10-22T09:14:00;15.60;99.90
42019;DHT22;27703;51.980;5.848;2022-10-22T09:16:36;15.50;99.90
42019;DHT22;27703;51.980;5.848;2022-10-22T09:19:16;15.50;99.90
42019;DHT22;27703;51.980;5.848;2022-10-22T09:26:58;15.50;99.90
42019;DHT22;27703;51.980;5.848;2022-10-22T09:29:32;15.50;99.90
42019;DHT22;27703;51.980;5.848;2022-10-22T09:31:58;15.50;99.90
42019;DHT22;27703;51.980;5.848;2022-10-22T09:34:23;15.50;99.90
42019;DHT22;27703;51.980;5.848;2022-10-22T09:37:00;15.50;99.90
42019;DHT22;27703;51.980;5.848;2022-10-22T09:39:39;15.50;99.90
42019;DHT22;27703;51.980;5.848;2022-10-22T09:42:08;15.50;99.90
42019;DHT22;27703;51.980;5.848;2022-10-22T09:44:36;15.50;99.90
42019;DHT22;27703;51.980;5.848;2022-10-22T09:47:06;15.60;99.90
42019;DHT22;27703;51.980;5.848;2022-10-22T09:49:34;15.60;99.90
42019;DHT22;27703;51.980;5.848;2022-10-22T09:52:01;15.60;99.90
42019;DHT22;27703;51.980;5.848;2022-10-22T09:54:37;15.70;99.90
42019;DHT22;27703;51.980;5.848;2022-10-22T09:57:04;15.70;99.90
42019;DHT22;27703;51.980;5.848;2022-10-22T09:59:32;15.70;99.90
42019;DHT22;27703;51.980;5.848;2022-10-22T10:02:08;15.80;99.90
42019;DHT22;27703;51.980;5.848;2022-10-22T10:04:40;15.80;99.90
42019;DHT22;27703;51.980;5.848;2022-10-22T10:07:22;15.90;99.90
42019;DHT22;27703;51.980;5.848;2022-10-22T10:09:47;15.90;99.90
42019;DHT22;27703;51.980;5.848;2022-10-22T10:17:47;16.00;99.90
42019;DHT22;27703;51.980;5.848;2022-10-22T10:20:40;16.00;99.90
42019;DHT22;27703;51.980;5.848;2022-10-22T10:26:39;16.10;99.90
42019;DHT22;27703;51.980;5.848;2022-10-22T10:40:49;16.10;99.90
42019;DHT22;27703;51.980;5.848;2022-10-22T10:43:24;16.10;99.90
42019;DHT22;27703;51.980;5.848;2022-10-22T10:46:16;16.10;99.90
42019;DHT22;27703;51.980;5.848;2022-10-22T10:51:19;16.30;99.90
42019;DHT22;27703;51.980;5.848;2022-10-22T10:56:56;16.60;99.90
42019;DHT22;27703;51.980;5.848;2022-10-22T11:07:49;17.20;99.90
42019;DHT22;27703;51.980;5.848;2022-10-22T11:10:39;17.20;99.90
42019;DHT22;27703;51.980;5.848;2022-10-22T11:15:54;17.40;99.90
42019;DHT22;27703;51.980;5.848;2022-10-22T11:18:41;17.40;99.90
42019;DHT22;27703;51.980;5.848;2022-10-22T11:21:18;17.50;99.90
42019;DHT22;27703;51.980;5.848;2022-10-22T11:24:19;17.60;99.90
42019;DHT22;27703;51.980;5.848;2022-10-22T11:27:03;17.70;99.90
42019;DHT22;27703;51.980;5.848;2022-10-22T11:29:36;17.70;99.90
42019;DHT22;27703;51.980;5.848;2022-10-22T11:32:05;17.70;99.90
42019;DHT22;27703;51.980;5.848;2022-10-22T11:34:41;17.90;99.90
42019;DHT22;27703;51.980;5.848;2022-10-22T11:37:10;18.00;99.90
42019;DHT22;27703;51.980;5.848;2022-10-22T11:39:42;18.20;99.90
42019;DHT22;27703;51.980;5.848;2022-10-22T11:42:20;18.20;99.90
42019;DHT22;27703;51.980;5.848;2022-10-22T11:50:53;18.30;99.90
42019;DHT22;27703;51.980;5.848;2022-10-22T11:53:31;18.20;99.90
42019;DHT22;27703;51.980;5.848;2022-10-22T11:56:22;18.10;99.90
42019;DHT22;27703;51.980;5.848;2022-10-22T11:58:49;18.00;99.90
42019;DHT22;27703;51.980;5.848;2022-10-22T12:01:22;17.80;99.90
42019;DHT22;27703;51.980;5.848;2022-10-22T12:06:27;17.70;99.90
42019;DHT22;27703;51.980;5.848;2022-10-22T12:14:10;17.80;99.90
42019;DHT22;27703;51.980;5.848;2022-10-22T12:16:41;17.90;99.90
42019;DHT22;27703;51.980;5.848;2022-10-22T12:19:30;17.90;99.90
42019;DHT22;27703;51.980;5.848;2022-10-22T12:22:22;18.00;99.90
42019;DHT22;27703;51.980;5.848;2022-10-22T12:24:52;18.20;99.90
42019;DHT22;27703;51.980;5.848;2022-10-22T12:27:20;18.20;99.90
42019;DHT22;27703;51.980;5.848;2022-10-22T12:29:46;18.10;99.90
42019;DHT22;27703;51.980;5.848;2022-10-22T12:32:14;18.10;99.90
42019;DHT22;27703;51.980;5.848;2022-10-22T12:34:51;18.00;99.90
42019;DHT22;27703;51.980;5.848;2022-10-22T12:37:17;17.80;99.90
42019;DHT22;27703;51.980;5.848;2022-10-22T12:39:44;17.80;99.90
42019;DHT22;27703;51.980;5.848;2022-10-22T12:42:15;17.70;99.90
42019;DHT22;27703;51.980;5.848;2022-10-22T12:44:44;17.60;99.90
42019;DHT22;27703;51.980;5.848;2022-10-22T12:47:14;17.60;99.90
42019;DHT22;27703;51.980;5.848;2022-10-22T12:49:44;17.60;99.90
42019;DHT22;27703;51.980;5.848;2022-10-22T12:52:17;17.50;99.90
42019;DHT22;27703;51.980;5.848;2022-10-22T12:54:45;17.60;99.90
42019;DHT22;27703;51.980;5.848;2022-10-22T12:57:15;17.80;99.90
42019;DHT22;27703;51.980;5.848;2022-10-22T12:59:42;18.00;99.90
42019;DHT22;27703;51.980;5.848;2022-10-22T13:02:22;18.10;99.90
42019;DHT22;27703;51.980;5.848;2022-10-22T13:05:15;18.30;99.90
42019;DHT22;27703;51.980;5.848;2022-10-22T13:07:45;18.30;99.90
42019;DHT22;27703;51.980;5.848;2022-10-22T13:10:25;18.20;99.90
42019;DHT22;27703;51.980;5.848;2022-10-22T13:12:55;18.20;99.90
42019;DHT22;27703;51.980;5.848;2022-10-22T13:20:32;18.10;99.90
42019;DHT22;27703;51.980;5.848;2022-10-22T13:23:03;18.00;99.90
42019;DHT22;27703;51.980;5.848;2022-10-22T13:25:36;18.00;99.90
42019;DHT22;27703;51.980;5.848;2022-10-22T13:28:20;18.00;99.90
42019;DHT22;27703;51.980;5.848;2022-10-22T13:30:58;18.20;99.90
42019;DHT22;27703;51.980;5.848;2022-10-22T13:33:38;18.30;99.90
42019;DHT22;27703;51.980;5.848;2022-10-22T13:36:05;18.60;99.90
42019;DHT22;27703;51.980;5.848;2022-10-22T13:38:31;18.80;99.90
42019;DHT22;27703;51.980;5.848;2022-10-22T13:40:56;18.80;99.90
42019;DHT22;27703;51.980;5.848;2022-10-22T13:43:23;18.80;99.90
42019;DHT22;27703;51.980;5.848;2022-10-22T13:45:53;18.80;99.90
42019;DHT22;27703;51.980;5.848;2022-10-22T13:48:21;18.90;99.90
42019;DHT22;27703;51.980;5.848;2022-10-22T13:50:48;18.80;99.90
42019;DHT22;27703;51.980;5.848;2022-10-22T13:53:18;18.80;99.90
42019;DHT22;27703;51.980;5.848;2022-10-22T13:55:45;18.80;99.90
42019;DHT22;27703;51.980;5.848;2022-10-22T13:58:13;18.70;99.90
42019;DHT22;27703;51.980;5.848;2022-10-22T14:00:41;18.60;99.90
42019;DHT22;27703;51.980;5.848;2022-10-22T14:03:14;18.50;99.90
42019;DHT22;27703;51.980;5.848;2022-10-22T14:05:40;18.30;99.90
42019;DHT22;27703;51.980;5.848;2022-10-22T14:08:15;18.20;99.90
42019;DHT22;27703;51.980;5.848;2022-10-22T14:10:41;18.20;99.90
42019;DHT22;27703;51.980;5.848;2022-10-22T14:13:09;18.10;99.90
42019;DHT22;27703;51.980;5.848;2022-10-22T14:15:35;18.10;99.90
42019;DHT22;27703;51.980;5.848;2022-10-22T14:18:00;18.00;99.90
42019;DHT22;27703;51.980;5.848;2022-10-22T14:20:29;18.00;99.90
42019;DHT22;27703;51.980;5.848;2022-10-22T14:22:57;18.00;99.90
42019;DHT22;27703;51.980;5.848;2022-10-22T14:25:25;18.00;99.90
42019;DHT22;27703;51.980;5.848;2022-10-22T14:27:51;17.90;99.90
42019;DHT22;27703;51.980;5.848;2022-10-22T14:30:22;17.90;99.90
42019;DHT22;27703;51.980;5.848;2022-10-22T14:32:48;17.80;99.90
42019;DHT22;27703;51.980;5.848;2022-10-22T14:35:16;17.80;99.90
42019;DHT22;27703;51.980;5.848;2022-10-22T14:37:42;17.80;99.90
42019;DHT22;27703;51.980;5.848;2022-10-22T14:40:10;17.80;99.90
42019;DHT22;27703;51.980;5.848;2022-10-22T14:42:39;17.80;99.90
42019;DHT22;27703;51.980;5.848;2022-10-22T14:45:09;17.80;99.90
42019;DHT22;27703;51.980;5.848;2022-10-22T14:47:37;17.70;99.90
42019;DHT22;27703;51.980;5.848;2022-10-22T14:50:03;17.70;99.90
42019;DHT22;27703;51.980;5.848;2022-10-22T14:52:28;17.70;99.90
42019;DHT22;27703;51.980;5.848;2022-10-22T14:54:54;17.70;99.90
42019;DHT22;27703;51.980;5.848;2022-10-22T14:57:19;17.70;99.90
42019;DHT22;27703;51.980;5.848;2022-10-22T14:59:45;17.60;99.90
42019;DHT22;27703;51.980;5.848;2022-10-22T15:02:11;17.60;99.90
42019;DHT22;27703;51.980;5.848;2022-10-22T15:04:38;17.60;99.90
42019;DHT22;27703;51.980;5.848;2022-10-22T15:07:03;17.70;99.90
42019;DHT22;27703;51.980;5.848;2022-10-22T15:09:29;17.70;99.90
42019;DHT22;27703;51.980;5.848;2022-10-22T15:11:55;17.80;99.90
42019;DHT22;27703;51.980;5.848;2022-10-22T15:14:20;17.90;99.90
42019;DHT22;27703;51.980;5.848;2022-10-22T15:16:46;18.00;99.90
42019;DHT22;27703;51.980;5.848;2022-10-22T15:19:11;18.10;99.90
42019;DHT22;27703;51.980;5.848;2022-10-22T15:21:37;18.20;99.90
42019;DHT22;27703;51.980;5.848;2022-10-22T15:24:03;18.30;99.90
42019;DHT22;27703;51.980;5.848;2022-10-22T15:26:29;18.30;99.90
42019;DHT22;27703;51.980;5.848;2022-10-22T15:28:54;18.30;99.90
42019;DHT22;27703;51.980;5.848;2022-10-22T15:31:44;18.20;99.90
42019;DHT22;27703;51.980;5.848;2022-10-22T15:34:10;18.20;99.90
42019;DHT22;27703;51.980;5.848;2022-10-22T15:36:36;18.10;99.90
42019;DHT22;27703;51.980;5.848;2022-10-22T15:39:08;18.00;99.90
42019;DHT22;27703;51.980;5.848;2022-10-22T15:41:35;18.00;99.90
42019;DHT22;27703;51.980;5.848;2022-10-22T15:44:01;17.90;99.90
42019;DHT22;27703;51.980;5.848;2022-10-22T15:46:27;17.90;99.90
42019;DHT22;27703;51.980;5.848;2022-10-22T15:48:53;17.80;99.90
42019;DHT22;27703;51.980;5.848;2022-10-22T15:51:19;17.80;99.90
42019;DHT22;27703;51.980;5.848;2022-10-22T15:53:50;17.70;99.90
42019;DHT22;27703;51.980;5.848;2022-10-22T15:56:16;17.70;99.90
42019;DHT22;27703;51.980;5.848;2022-10-22T15:58:42;17.60;99.90
42019;DHT22;27703;51.980;5.848;2022-10-22T16:01:10;17.50;99.90
42019;DHT22;27703;51.980;5.848;2022-10-22T16:03:36;17.50;99.90
42019;DHT22;27703;51.980;5.848;2022-10-22T16:06:03;17.40;99.90
42019;DHT22;27703;51.980;5.848;2022-10-22T16:08:28;17.40;99.90
42019;DHT22;27703;51.980;5.848;2022-10-22T16:10:54;17.30;99.90
42019;DHT22;27703;51.980;5.848;2022-10-22T16:13:20;17.30;99.90
42019;DHT22;27703;51.980;5.848;2022-10-22T16:15:48;17.20;99.90
42019;DHT22;27703;51.980;5.848;2022-10-22T16:18:14;17.10;99.90
42019;DHT22;27703;51.980;5.848;2022-10-22T16:20:40;17.10;99.90
42019;DHT22;27703;51.980;5.848;2022-10-22T16:23:06;17.00;99.90
42019;DHT22;27703;51.980;5.848;2022-10-22T16:25:38;16.90;99.90
42019;DHT22;27703;51.980;5.848;2022-10-22T16:28:04;16.80;99.90
42019;DHT22;27703;51.980;5.848;2022-10-22T16:30:32;16.80;99.90
42019;DHT22;27703;51.980;5.848;2022-10-22T16:32:58;16.70;99.90
42019;DHT22;27703;51.980;5.848;2022-10-22T16:35:24;16.60;99.90
42019;DHT22;27703;51.980;5.848;2022-10-22T16:37:49;16.50;99.90
42019;DHT22;27703;51.980;5.848;2022-10-22T16:40:15;16.40;99.90
42019;DHT22;27703;51.980;5.848;2022-10-22T16:42:40;16.40;99.90
42019;DHT22;27703;51.980;5.848;2022-10-22T16:45:06;16.40;99.90
42019;DHT22;27703;51.980;5.848;2022-10-22T16:47:32;16.30;99.90
42019;DHT22;27703;51.980;5.848;2022-10-22T16:49:58;16.30;99.90
42019;DHT22;27703;51.980;5.848;2022-10-22T16:52:25;16.30;99.90
42019;DHT22;27703;51.980;5.848;2022-10-22T16:54:51;16.30;99.90
42019;DHT22;27703;51.980;5.848;2022-10-22T16:57:16;16.20;99.90
42019;DHT22;27703;51.980;5.848;2022-10-22T16:59:42;16.10;99.90
42019;DHT22;27703;51.980;5.848;2022-10-22T17:02:09;16.00;99.90
42019;DHT22;27703;51.980;5.848;2022-10-22T17:04:35;16.00;99.90
42019;DHT22;27703;51.980;5.848;2022-10-22T17:07:01;15.90;99.90
42019;DHT22;27703;51.980;5.848;2022-10-22T17:09:26;15.90;99.90
42019;DHT22;27703;51.980;5.848;2022-10-22T17:11:52;15.80;99.90
42019;DHT22;27703;51.980;5.848;2022-10-22T17:14:17;15.70;99.90
42019;DHT22;27703;51.980;5.848;2022-10-22T17:16:43;15.70;99.90
42019;DHT22;27703;51.980;5.848;2022-10-22T17:19:11;15.60;99.90
42019;DHT22;27703;51.980;5.848;2022-10-22T17:21:38;15.60;99.90